sensor_id;sensor_type;location;lat;lon;timestamp;pressure;altitude;pressure_sealevel;temperature;humidity
35888;BME280;21990;42.540;23.496;2023-03-04T00:01:20;93505.63;;;4.80;97.98
35888;BME280;21990;42.540;23.496;2023-03-04T00:03:46;93500.81;;;4.81;98.37
35888;BME280;21990;42.540;23.496;2023-03-04T00:06:11;93505.41;;;4.84;98.69
35888;BME280;21990;42.540;23.496;2023-03-04T00:08:37;93501.34;;;4.85;98.74
35888;BME280;21990;42.540;23.496;2023-03-04T00:11:03;93506.44;;;4.86;99.17
35888;BME280;21990;42.540;23.496;2023-03-04T00:13:28;93507.41;;;4.83;99.17
35888;BME280;21990;42.540;23.496;2023-03-04T00:15:54;93502.38;;;4.87;99.32
35888;BME280;21990;42.540;23.496;2023-03-04T00:18:19;93492.75;;;4.88;99.49
35888;BME280;21990;42.540;23.496;2023-03-04T00:20:47;93499.88;;;4.89;99.16
35888;BME280;21990;42.540;23.496;2023-03-04T00:23:15;93498.28;;;4.83;99.08
35888;BME280;21990;42.540;23.496;2023-03-04T00:25:41;93506.88;;;4.79;99.49
35888;BME280;21990;42.540;23.496;2023-03-04T00:28:06;93505.63;;;4.80;99.16
35888;BME280;21990;42.540;23.496;2023-03-04T00:30:32;93500.56;;;4.78;99.27
35888;BME280;21990;42.540;23.496;2023-03-04T00:32:57;93495.78;;;4.85;99.26
35888;BME280;21990;42.540;23.496;2023-03-04T00:35:23;93505.63;;;4.80;99.13
35888;BME280;21990;42.540;23.496;2023-03-04T00:37:48;93499.09;;;4.89;99.45
35888;BME280;21990;42.540;23.496;2023-03-04T00:40:14;93490.22;;;4.90;99.44
35888;BME280;21990;42.540;23.496;2023-03-04T00:42:39;93490.72;;;4.89;99.33
35888;BME280;21990;42.540;23.496;2023-03-04T00:45:05;93489.41;;;4.84;99.15
35888;BME280;21990;42.540;23.496;2023-03-04T00:47:31;93487.88;;;4.83;99.08
35888;BME280;21990;42.540;23.496;2023-03-04T00:49:57;93490.13;;;4.79;99.01
35888;BME280;21990;42.540;23.496;2023-03-04T00:52:22;93483.84;;;4.84;99.06
35888;BME280;21990;42.540;23.496;2023-03-04T00:54:48;93473.94;;;4.83;99.34
35888;BME280;21990;42.540;23.496;2023-03-04T00:57:13;93471.13;;;4.77;99.38
35888;BME280;21990;42.540;23.496;2023-03-04T00:59:38;93471.88;;;4.78;99.19
35888;BME280;21990;42.540;23.496;2023-03-04T01:02:05;93474.13;;;4.74;98.84
35888;BME280;21990;42.540;23.496;2023-03-04T01:04:31;93469.81;;;4.73;98.23
35888;BME280;21990;42.540;23.496;2023-03-04T01:06:56;93464.72;;;4.71;98.43
35888;BME280;21990;42.540;23.496;2023-03-04T01:09:22;93458.88;;;4.69;97.95
35888;BME280;21990;42.540;23.496;2023-03-04T01:11:47;93465.47;;;4.66;97.64
35888;BME280;21990;42.540;23.496;2023-03-04T01:14:13;93460.06;;;4.57;97.80
35888;BME280;21990;42.540;23.496;2023-03-04T01:16:38;93460.31;;;4.59;97.84
35888;BME280;21990;42.540;23.496;2023-03-04T01:19:04;93457.03;;;4.61;97.40
35888;BME280;21990;42.540;23.496;2023-03-04T01:21:29;93457.75;;;4.56;97.64
35888;BME280;21990;42.540;23.496;2023-03-04T01:23:55;93460.00;;;4.52;97.62
35888;BME280;21990;42.540;23.496;2023-03-04T01:26:20;93455.44;;;4.49;97.87
35888;BME280;21990;42.540;23.496;2023-03-04T01:28:46;93449.06;;;4.43;98.41
35888;BME280;21990;42.540;23.496;2023-03-04T01:31:11;93452.56;;;4.38;98.53
35888;BME280;21990;42.540;23.496;2023-03-04T01:33:37;93452.03;;;4.34;98.85
35888;BME280;21990;42.540;23.496;2023-03-04T01:36:03;93464.19;;;4.30;99.01
35888;BME280;21990;42.540;23.496;2023-03-04T01:38:28;93457.13;;;4.35;99.38
35888;BME280;21990;42.540;23.496;2023-03-04T01:40:54;93457.38;;;4.37;99.42
35888;BME280;21990;42.540;23.496;2023-03-04T01:43:25;93458.91;;;4.38;99.28
35888;BME280;21990;42.540;23.496;2023-03-04T01:45:52;93459.16;;;4.40;98.99
35888;BME280;21990;42.540;23.496;2023-03-04T01:48:23;93452.84;;;4.40;99.08
35888;BME280;21990;42.540;23.496;2023-03-04T01:50:49;93453.09;;;4.42;99.18
35888;BME280;21990;42.540;23.496;2023-03-04T01:53:23;93447.97;;;4.35;99.68
35888;BME280;21990;42.540;23.496;2023-03-04T01:55:51;93457.81;;;4.30;99.49
35888;BME280;21990;42.540;23.496;2023-03-04T01:58:17;93460.56;;;4.24;99.76
35888;BME280;21990;42.540;23.496;2023-03-04T02:00:43;93461.41;;;4.05;100.00
35888;BME280;21990;42.540;23.496;2023-03-04T02:03:13;93458.75;;;3.90;100.00
35888;BME280;21990;42.540;23.496;2023-03-04T02:05:43;93451.63;;;3.89;100.00
35888;BME280;21990;42.540;23.496;2023-03-04T02:08:11;93457.66;;;3.82;100.00
35888;BME280;21990;42.540;23.496;2023-03-04T02:10:37;93447.03;;;3.86;100.00
35888;BME280;21990;42.540;23.496;2023-03-04T02:13:04;93456.28;;;3.98;100.00
35888;BME280;21990;42.540;23.496;2023-03-04T02:15:30;93454.53;;;4.00;100.00
35888;BME280;21990;42.540;23.496;2023-03-04T02:17:55;93446.13;;;3.95;100.00
35888;BME280;21990;42.540;23.496;2023-03-04T02:26:03;93455.72;;;4.19;100.00
35888;BME280;21990;42.540;23.496;2023-03-04T02:28:30;93446.38;;;4.22;100.00
35888;BME280;21990;42.540;23.496;2023-03-04T02:30:56;93443.81;;;4.24;100.00
35888;BME280;21990;42.540;23.496;2023-03-04T02:33:21;93446.94;;;4.32;100.00
35888;BME280;21990;42.540;23.496;2023-03-04T02:35:47;93443.94;;;4.36;100.00
35888;BME280;21990;42.540;23.496;2023-03-04T02:38:12;93444.69;;;4.36;99.99
35888;BME280;21990;42.540;23.496;2023-03-04T02:40:40;93438.91;;;4.40;99.99
35888;BME280;21990;42.540;23.496;2023-03-04T02:43:10;93437.06;;;4.37;99.19
35888;BME280;21990;42.540;23.496;2023-03-04T02:45:39;93436.28;;;4.30;99.68
35888;BME280;21990;42.540;23.496;2023-03-04T02:48:06;93438.25;;;4.24;99.69
35888;BME280;21990;42.540;23.496;2023-03-04T02:50:35;93438.25;;;4.24;99.97
35888;BME280;21990;42.540;23.496;2023-03-04T02:53:02;93436.06;;;4.03;100.00
35888;BME280;21990;42.540;23.496;2023-03-04T02:55:28;93444.91;;;4.01;100.00
35888;BME280;21990;42.540;23.496;2023-03-04T02:57:53;93436.81;;;4.03;100.00
35888;BME280;21990;42.540;23.496;2023-03-04T03:00:19;93433.09;;;4.12;100.00
35888;BME280;21990;42.540;23.496;2023-03-04T03:02:45;93437.69;;;4.15;100.00
35888;BME280;21990;42.540;23.496;2023-03-04T03:05:11;93431.88;;;4.18;100.00
35888;BME280;21990;42.540;23.496;2023-03-04T03:07:37;93433.66;;;4.21;100.00
35888;BME280;21990;42.540;23.496;2023-03-04T03:10:03;93428.78;;;4.11;100.00
35888;BME280;21990;42.540;23.496;2023-03-04T03:12:28;93445.53;;;4.16;100.00
35888;BME280;21990;42.540;23.496;2023-03-04T03:14:54;93426.31;;;4.18;100.00
35888;BME280;21990;42.540;23.496;2023-03-04T03:17:19;93432.97;;;4.26;100.00
35888;BME280;21990;42.540;23.496;2023-03-04T03:19:45;93421.81;;;4.26;99.79
35888;BME280;21990;42.540;23.496;2023-03-04T03:22:10;93429.16;;;4.29;99.85
35888;BME280;21990;42.540;23.496;2023-03-04T03:24:36;93434.25;;;4.31;99.72
35888;BME280;21990;42.540;23.496;2023-03-04T03:27:02;93427.69;;;4.34;99.81
35888;BME280;21990;42.540;23.496;2023-03-04T03:29:27;93426.66;;;4.32;99.53
35888;BME280;21990;42.540;23.496;2023-03-04T03:31:53;93421.28;;;4.28;99.08
35888;BME280;21990;42.540;23.496;2023-03-04T03:34:18;93412.66;;;4.26;99.23
35888;BME280;21990;42.540;23.496;2023-03-04T03:36:44;93412.91;;;4.22;98.93
35888;BME280;21990;42.540;23.496;2023-03-04T03:39:09;93415.84;;;4.08;99.08
35888;BME280;21990;42.540;23.496;2023-03-04T03:41:35;93410.25;;;4.08;98.79
35888;BME280;21990;42.540;23.496;2023-03-04T03:44:01;93423.34;;;3.96;98.53
35888;BME280;21990;42.540;23.496;2023-03-04T03:46:26;93423.81;;;3.95;98.52
35888;BME280;21990;42.540;23.496;2023-03-04T03:48:52;93417.47;;;3.94;98.63
35888;BME280;21990;42.540;23.496;2023-03-04T03:51:17;93424.53;;;3.90;98.42
35888;BME280;21990;42.540;23.496;2023-03-04T03:53:43;93422.50;;;3.90;96.86
35888;BME280;21990;42.540;23.496;2023-03-04T03:56:08;93417.16;;;3.87;96.18
35888;BME280;21990;42.540;23.496;2023-03-04T03:58:34;93418.41;;;3.86;96.25
35888;BME280;21990;42.540;23.496;2023-03-04T04:00:59;93423.44;;;3.81;96.26
35888;BME280;21990;42.540;23.496;2023-03-04T04:03:25;93420.41;;;3.79;96.67
35888;BME280;21990;42.540;23.496;2023-03-04T04:05:50;93424.22;;;3.82;96.77
35888;BME280;21990;42.540;23.496;2023-03-04T04:08:16;93427.75;;;3.82;96.78
35888;BME280;21990;42.540;23.496;2023-03-04T04:10:43;93426.34;;;3.67;96.74
35888;BME280;21990;42.540;23.496;2023-03-04T04:13:09;93435.63;;;3.58;96.93
35888;BME280;21990;42.540;23.496;2023-03-04T04:15:34;93428.63;;;3.43;97.02
35888;BME280;21990;42.540;23.496;2023-03-04T04:18:01;93424.88;;;3.46;97.35
35888;BME280;21990;42.540;23.496;2023-03-04T04:20:27;93433.81;;;3.55;96.65
35888;BME280;21990;42.540;23.496;2023-03-04T04:22:52;93428.53;;;3.57;96.11
35888;BME280;21990;42.540;23.496;2023-03-04T04:25:18;93425.22;;;3.53;95.78
35888;BME280;21990;42.540;23.496;2023-03-04T04:27:43;93433.56;;;3.53;95.51
35888;BME280;21990;42.540;23.496;2023-03-04T04:30:09;93429.72;;;3.51;95.70
35888;BME280;21990;42.540;23.496;2023-03-04T04:32:35;93425.97;;;3.54;96.20
35888;BME280;21990;42.540;23.496;2023-03-04T04:35:01;93429.50;;;3.54;96.20
35888;BME280;21990;42.540;23.496;2023-03-04T04:37:26;93430.00;;;3.53;96.37
35888;BME280;21990;42.540;23.496;2023-03-04T04:39:52;93423.38;;;3.50;96.26
35888;BME280;21990;42.540;23.496;2023-03-04T04:42:20;93431.41;;;3.43;95.65
35888;BME280;21990;42.540;23.496;2023-03-04T04:44:45;93421.53;;;3.42;95.90
35888;BME280;21990;42.540;23.496;2023-03-04T04:47:11;93426.34;;;3.41;96.19
35888;BME280;21990;42.540;23.496;2023-03-04T04:49:37;93423.56;;;3.41;95.95
35888;BME280;21990;42.540;23.496;2023-03-04T04:52:02;93430.16;;;3.44;96.06
35888;BME280;21990;42.540;23.496;2023-03-04T04:54:28;93422.56;;;3.44;96.14
35888;BME280;21990;42.540;23.496;2023-03-04T04:56:53;93427.34;;;3.38;95.95
35888;BME280;21990;42.540;23.496;2023-03-04T04:59:19;93425.03;;;3.37;96.39
35888;BME280;21990;42.540;23.496;2023-03-04T05:01:44;93430.13;;;3.38;96.69
35888;BME280;21990;42.540;23.496;2023-03-04T05:04:10;93435.41;;;3.36;96.82
35888;BME280;21990;42.540;23.496;2023-03-04T05:06:35;93441.47;;;3.34;96.66
35888;BME280;21990;42.540;23.496;2023-03-04T05:09:01;93435.97;;;3.20;96.63
35888;BME280;21990;42.540;23.496;2023-03-04T05:11:27;93446.63;;;3.21;96.96
35888;BME280;21990;42.540;23.496;2023-03-04T05:13:52;93435.53;;;3.27;97.17
35888;BME280;21990;42.540;23.496;2023-03-04T05:16:18;93442.94;;;3.30;97.52
35888;BME280;21990;42.540;23.496;2023-03-04T05:18:43;93443.97;;;3.32;97.73
35888;BME280;21990;42.540;23.496;2023-03-04T05:21:09;93443.84;;;3.21;97.69
35888;BME280;21990;42.540;23.496;2023-03-04T05:23:37;93453.00;;;3.27;98.38
35888;BME280;21990;42.540;23.496;2023-03-04T05:26:04;93449.84;;;3.34;98.55
35888;BME280;21990;42.540;23.496;2023-03-04T05:28:31;93453.13;;;3.39;98.44
35888;BME280;21990;42.540;23.496;2023-03-04T05:30:56;93451.13;;;3.39;98.11
35888;BME280;21990;42.540;23.496;2023-03-04T05:33:22;93445.84;;;3.41;98.08
35888;BME280;21990;42.540;23.496;2023-03-04T05:35:48;93456.75;;;3.45;98.05
35888;BME280;21990;42.540;23.496;2023-03-04T05:38:16;93457.78;;;3.47;98.17
35888;BME280;21990;42.540;23.496;2023-03-04T05:40:42;93453.75;;;3.48;98.44
35888;BME280;21990;42.540;23.496;2023-03-04T05:43:09;93462.88;;;3.49;98.73
35888;BME280;21990;42.540;23.496;2023-03-04T05:45:35;93457.53;;;3.45;98.99
35888;BME280;21990;42.540;23.496;2023-03-04T05:48:01;93466.44;;;3.49;99.22
35888;BME280;21990;42.540;23.496;2023-03-04T05:50:27;93463.66;;;3.49;99.17
35888;BME280;21990;42.540;23.496;2023-03-04T05:52:53;93464.13;;;3.48;99.45
35888;BME280;21990;42.540;23.496;2023-03-04T05:55:19;93455.22;;;3.44;100.00
35888;BME280;21990;42.540;23.496;2023-03-04T05:57:46;93454.56;;;3.54;100.00
35888;BME280;21990;42.540;23.496;2023-03-04T06:00:13;93459.75;;;3.61;100.00
35888;BME280;21990;42.540;23.496;2023-03-04T06:02:40;93454.94;;;3.62;100.00
35888;BME280;21990;42.540;23.496;2023-03-04T06:05:06;93455.75;;;3.68;100.00
35888;BME280;21990;42.540;23.496;2023-03-04T06:07:32;93462.69;;;3.78;100.00
35888;BME280;21990;42.540;23.496;2023-03-04T06:09:58;93460.19;;;3.80;100.00
35888;BME280;21990;42.540;23.496;2023-03-04T06:12:23;93465.47;;;3.78;100.00
35888;BME280;21990;42.540;23.496;2023-03-04T06:14:49;93457.28;;;3.69;100.00
35888;BME280;21990;42.540;23.496;2023-03-04T06:17:15;93463.72;;;3.80;100.00
35888;BME280;21990;42.540;23.496;2023-03-04T06:19:41;93464.53;;;3.87;100.00
35888;BME280;21990;42.540;23.496;2023-03-04T06:22:10;93466.66;;;3.97;100.00
35888;BME280;21990;42.540;23.496;2023-03-04T06:24:35;93469.50;;;4.03;100.00
35888;BME280;21990;42.540;23.496;2023-03-04T06:27:01;93469.03;;;4.04;100.00
35888;BME280;21990;42.540;23.496;2023-03-04T06:29:27;93474.00;;;3.95;100.00
35888;BME280;21990;42.540;23.496;2023-03-04T06:31:52;93477.38;;;3.78;100.00
35888;BME280;21990;42.540;23.496;2023-03-04T06:34:18;93470.25;;;3.77;100.00
35888;BME280;21990;42.540;23.496;2023-03-04T06:36:44;93478.97;;;3.85;100.00
35888;BME280;21990;42.540;23.496;2023-03-04T06:39:10;93470.72;;;3.96;100.00
35888;BME280;21990;42.540;23.496;2023-03-04T06:41:35;93475.34;;;4.05;100.00
35888;BME280;21990;42.540;23.496;2023-03-04T06:44:01;93479.44;;;4.09;99.98
35888;BME280;21990;42.540;23.496;2023-03-04T06:46:27;93472.78;;;4.01;99.23
35888;BME280;21990;42.540;23.496;2023-03-04T06:48:53;93482.03;;;3.87;99.53
35888;BME280;21990;42.540;23.496;2023-03-04T06:51:18;93487.53;;;3.81;100.00
35888;BME280;21990;42.540;23.496;2023-03-04T06:53:44;93477.81;;;3.97;100.00
35888;BME280;21990;42.540;23.496;2023-03-04T06:56:11;93489.47;;;3.96;100.00
35888;BME280;21990;42.540;23.496;2023-03-04T06:58:40;93495.72;;;3.85;100.00
35888;BME280;21990;42.540;23.496;2023-03-04T07:01:20;93500.78;;;3.87;100.00
35888;BME280;21990;42.540;23.496;2023-03-04T07:03:46;93498.50;;;3.85;100.00
35888;BME280;21990;42.540;23.496;2023-03-04T07:06:14;93492.56;;;3.77;100.00
35888;BME280;21990;42.540;23.496;2023-03-04T07:08:40;93499.56;;;3.93;100.00
35888;BME280;21990;42.540;23.496;2023-03-04T07:11:06;93495.41;;;4.09;100.00
35888;BME280;21990;42.540;23.496;2023-03-04T07:13:31;93491.97;;;4.19;100.00
35888;BME280;21990;42.540;23.496;2023-03-04T07:16:00;93494.09;;;4.30;100.00
35888;BME280;21990;42.540;23.496;2023-03-04T07:18:25;93499.97;;;4.38;100.00
35888;BME280;21990;42.540;23.496;2023-03-04T07:20:52;93482.09;;;4.55;100.00
35888;BME280;21990;42.540;23.496;2023-03-04T07:23:18;93482.44;;;4.63;100.00
35888;BME280;21990;42.540;23.496;2023-03-04T07:25:44;93482.28;;;4.77;100.00
35888;BME280;21990;42.540;23.496;2023-03-04T07:28:09;93487.88;;;4.83;99.09
35888;BME280;21990;42.540;23.496;2023-03-04T07:30:35;93485.44;;;4.96;97.80
35888;BME280;21990;42.540;23.496;2023-03-04T07:33:01;93482.34;;;4.89;96.25
35888;BME280;21990;42.540;23.496;2023-03-04T07:35:26;93495.06;;;4.90;95.75
35888;BME280;21990;42.540;23.496;2023-03-04T07:37:52;93485.00;;;5.09;96.70
35888;BME280;21990;42.540;23.496;2023-03-04T07:40:17;93480.19;;;5.15;96.59
35888;BME280;21990;42.540;23.496;2023-03-04T07:42:48;93473.66;;;5.23;96.68
35888;BME280;21990;42.540;23.496;2023-03-04T07:45:14;93484.09;;;5.34;95.61
35888;BME280;21990;42.540;23.496;2023-03-04T07:47:39;93484.16;;;5.45;95.00
35888;BME280;21990;42.540;23.496;2023-03-04T07:50:06;93480.66;;;5.56;94.74
35888;BME280;21990;42.540;23.496;2023-03-04T07:52:31;93479.88;;;5.55;93.97
35888;BME280;21990;42.540;23.496;2023-03-04T07:54:57;93474.81;;;5.59;94.41
35888;BME280;21990;42.540;23.496;2023-03-04T07:57:23;93478.91;;;5.69;93.85
35888;BME280;21990;42.540;23.496;2023-03-04T07:59:49;93482.50;;;5.76;93.50
35888;BME280;21990;42.540;23.496;2023-03-04T08:02:16;93476.91;;;5.76;92.22
35888;BME280;21990;42.540;23.496;2023-03-04T08:04:42;93485.28;;;5.76;91.75
35888;BME280;21990;42.540;23.496;2023-03-04T08:07:07;93476.91;;;5.76;91.72
35888;BME280;21990;42.540;23.496;2023-03-04T08:09:33;93478.19;;;5.86;92.14
35888;BME280;21990;42.540;23.496;2023-03-04T08:11:58;93475.19;;;5.89;91.74
35888;BME280;21990;42.540;23.496;2023-03-04T08:14:24;93476.47;;;5.94;91.05
35888;BME280;21990;42.540;23.496;2023-03-04T08:16:49;93480.53;;;5.93;91.07
35888;BME280;21990;42.540;23.496;2023-03-04T08:19:15;93474.44;;;5.94;90.75
35888;BME280;21990;42.540;23.496;2023-03-04T08:21:40;93478.00;;;6.00;91.12
35888;BME280;21990;42.540;23.496;2023-03-04T08:24:08;93470.38;;;6.01;91.74
35888;BME280;21990;42.540;23.496;2023-03-04T08:26:41;93477.25;;;6.11;91.87
35888;BME280;21990;42.540;23.496;2023-03-04T08:29:10;93462.28;;;6.14;92.01
35888;BME280;21990;42.540;23.496;2023-03-04T08:31:37;93476.00;;;6.23;91.72
35888;BME280;21990;42.540;23.496;2023-03-04T08:34:03;93463.78;;;6.20;91.53
35888;BME280;21990;42.540;23.496;2023-03-04T08:36:29;93465.31;;;6.27;90.37
35888;BME280;21990;42.540;23.496;2023-03-04T08:38:54;93462.25;;;6.31;89.94
35888;BME280;21990;42.540;23.496;2023-03-04T08:41:20;93467.63;;;6.29;90.20
35888;BME280;21990;42.540;23.496;2023-03-04T08:43:47;93468.63;;;6.31;90.39
35888;BME280;21990;42.540;23.496;2023-03-04T08:46:12;93472.22;;;6.37;89.64
35888;BME280;21990;42.540;23.496;2023-03-04T08:48:38;93462.25;;;6.31;89.00
35888;BME280;21990;42.540;23.496;2023-03-04T08:51:12;93467.63;;;6.40;89.41
35888;BME280;21990;42.540;23.496;2023-03-04T08:53:38;93461.53;;;6.41;89.40
35888;BME280;21990;42.540;23.496;2023-03-04T08:56:05;93461.00;;;6.48;89.54
35888;BME280;21990;42.540;23.496;2023-03-04T08:58:31;93462.28;;;6.53;89.57
35888;BME280;21990;42.540;23.496;2023-03-04T09:00:58;93461.75;;;6.54;88.58
35888;BME280;21990;42.540;23.496;2023-03-04T09:03:25;93460.00;;;6.57;89.23
35888;BME280;21990;42.540;23.496;2023-03-04T09:05:51;93459.22;;;6.67;88.36
35888;BME280;21990;42.540;23.496;2023-03-04T09:08:16;93456.94;;;6.72;87.84
35888;BME280;21990;42.540;23.496;2023-03-04T09:10:43;93461.75;;;6.71;88.29
35888;BME280;21990;42.540;23.496;2023-03-04T09:13:09;93453.09;;;6.80;87.36
35888;BME280;21990;42.540;23.496;2023-03-04T09:15:45;93455.91;;;6.80;86.51
35888;BME280;21990;42.540;23.496;2023-03-04T09:18:12;93446.22;;;6.81;87.93
35888;BME280;21990;42.540;23.496;2023-03-04T09:20:37;93452.34;;;6.80;85.11
35888;BME280;21990;42.540;23.496;2023-03-04T09:23:03;93445.19;;;6.79;85.87
35888;BME280;21990;42.540;23.496;2023-03-04T09:25:29;93438.81;;;6.95;88.03
35888;BME280;21990;42.540;23.496;2023-03-04T09:27:54;93431.63;;;7.10;87.68
35888;BME280;21990;42.540;23.496;2023-03-04T09:30:20;93435.94;;;7.23;86.50
35888;BME280;21990;42.540;23.496;2023-03-04T09:32:46;93444.34;;;7.23;85.69
35888;BME280;21990;42.540;23.496;2023-03-04T09:35:11;93432.06;;;7.37;88.83
35888;BME280;21990;42.540;23.496;2023-03-04T09:37:37;93433.81;;;7.45;86.75
35888;BME280;21990;42.540;23.496;2023-03-04T09:40:04;93436.56;;;7.56;85.97
35888;BME280;21990;42.540;23.496;2023-03-04T09:42:37;93431.50;;;7.49;84.49
35888;BME280;21990;42.540;23.496;2023-03-04T09:45:05;93428.44;;;7.47;83.68
35888;BME280;21990;42.540;23.496;2023-03-04T09:47:33;93427.44;;;7.45;84.68
35888;BME280;21990;42.540;23.496;2023-03-04T09:50:05;93432.06;;;7.37;81.36
35888;BME280;21990;42.540;23.496;2023-03-04T09:55:39;93431.06;;;7.29;84.66
35888;BME280;21990;42.540;23.496;2023-03-04T09:58:24;93422.91;;;7.31;82.19
35888;BME280;21990;42.540;23.496;2023-03-04T10:00:55;93418.03;;;7.37;83.12
35888;BME280;21990;42.540;23.496;2023-03-04T10:03:31;93411.38;;;7.45;83.00
35888;BME280;21990;42.540;23.496;2023-03-04T10:06:05;93409.50;;;7.64;86.33
35888;BME280;21990;42.540;23.496;2023-03-04T10:11:04;93405.56;;;7.84;82.58
35888;BME280;21990;42.540;23.496;2023-03-04T10:13:37;93406.13;;;7.77;80.25
35888;BME280;21990;42.540;23.496;2023-03-04T10:16:06;93402.03;;;7.78;81.43
35888;BME280;21990;42.540;23.496;2023-03-04T10:18:40;93406.91;;;7.72;80.71
35888;BME280;21990;42.540;23.496;2023-03-04T10:21:19;93398.78;;;7.69;80.63
35888;BME280;21990;42.540;23.496;2023-03-04T10:23:47;93397.56;;;7.58;80.46
35888;BME280;21990;42.540;23.496;2023-03-04T10:26:15;93390.66;;;7.59;82.04
35888;BME280;21990;42.540;23.496;2023-03-04T10:28:44;93386.56;;;7.66;81.70
35888;BME280;21990;42.540;23.496;2023-03-04T10:31:35;93383.69;;;7.77;79.99
35888;BME280;21990;42.540;23.496;2023-03-04T10:34:04;93377.00;;;7.86;81.68
35888;BME280;21990;42.540;23.496;2023-03-04T10:38:59;93375.91;;;7.94;79.72
35888;BME280;21990;42.540;23.496;2023-03-04T10:41:28;93363.53;;;7.79;79.45
35888;BME280;21990;42.540;23.496;2023-03-04T10:46:40;93354.44;;;8.02;81.72
35888;BME280;21990;42.540;23.496;2023-03-04T10:49:09;93352.72;;;8.29;83.22
35888;BME280;21990;42.540;23.496;2023-03-04T10:51:42;93355.09;;;8.49;82.03
35888;BME280;21990;42.540;23.496;2023-03-04T10:54:17;93350.41;;;8.57;80.22
35888;BME280;21990;42.540;23.496;2023-03-04T10:56:55;93349.84;;;8.65;77.85
35888;BME280;21990;42.540;23.496;2023-03-04T11:00:08;93341.41;;;8.65;77.96
35888;BME280;21990;42.540;23.496;2023-03-04T11:02:30;93331.47;;;8.64;78.71
35888;BME280;21990;42.540;23.496;2023-03-04T11:07:40;93327.44;;;8.59;77.18
35888;BME280;21990;42.540;23.496;2023-03-04T11:12:40;93323.44;;;8.49;78.08
35888;BME280;21990;42.540;23.496;2023-03-04T11:15:21;93307.47;;;8.38;77.83
35888;BME280;21990;42.540;23.496;2023-03-04T11:18:09;93306.03;;;8.26;78.61
35888;BME280;21990;42.540;23.496;2023-03-04T11:20:41;93306.66;;;8.43;78.39
35888;BME280;21990;42.540;23.496;2023-03-04T11:23:17;93298.34;;;8.32;77.45
35888;BME280;21990;42.540;23.496;2023-03-04T11:25:55;93299.34;;;8.35;79.17
35888;BME280;21990;42.540;23.496;2023-03-04T11:28:32;93298.13;;;8.54;79.58
35888;BME280;21990;42.540;23.496;2023-03-04T11:31:25;93285.31;;;8.59;77.92
35888;BME280;21990;42.540;23.496;2023-03-04T11:34:19;93286.25;;;8.67;78.22
35888;BME280;21990;42.540;23.496;2023-03-04T11:37:17;93286.13;;;8.78;76.59
35888;BME280;21990;42.540;23.496;2023-03-04T11:39:59;93282.22;;;8.63;77.36
35888;BME280;21990;42.540;23.496;2023-03-04T11:42:44;93273.72;;;8.68;77.82
35888;BME280;21990;42.540;23.496;2023-03-04T11:45:22;93277.47;;;8.52;76.58
35888;BME280;21990;42.540;23.496;2023-03-04T11:48:08;93267.91;;;8.61;77.62
35888;BME280;21990;42.540;23.496;2023-03-04T11:50:51;93272.91;;;8.49;77.38
35888;BME280;21990;42.540;23.496;2023-03-04T12:35:32;93242.97;;;8.03;80.39
35888;BME280;21990;42.540;23.496;2023-03-04T12:55:13;93217.38;;;8.12;80.96
35888;BME280;21990;42.540;23.496;2023-03-04T12:57:40;93212.28;;;8.10;81.17
35888;BME280;21990;42.540;23.496;2023-03-04T13:03:02;93220.53;;;8.27;80.86
35888;BME280;21990;42.540;23.496;2023-03-04T13:16:50;93199.34;;;8.32;79.66
35888;BME280;21990;42.540;23.496;2023-03-04T13:19:49;93199.72;;;8.41;79.89
35888;BME280;21990;42.540;23.496;2023-03-04T13:32:56;93185.16;;;8.19;79.73
35888;BME280;21990;42.540;23.496;2023-03-04T13:51:37;93174.72;;;8.43;78.11
35888;BME280;21990;42.540;23.496;2023-03-04T13:54:33;93175.38;;;8.49;78.17
35888;BME280;21990;42.540;23.496;2023-03-04T13:57:18;93171.09;;;8.67;78.83
35888;BME280;21990;42.540;23.496;2023-03-04T13:59:55;93166.47;;;8.70;77.19
35888;BME280;21990;42.540;23.496;2023-03-04T14:02:23;93167.38;;;8.59;76.83
35888;BME280;21990;42.540;23.496;2023-03-04T14:07:35;93159.72;;;8.60;77.39
35888;BME280;21990;42.540;23.496;2023-03-04T14:12:59;93152.75;;;8.42;76.86
35888;BME280;21990;42.540;23.496;2023-03-04T14:15:27;93152.41;;;8.51;77.42
35888;BME280;21990;42.540;23.496;2023-03-04T14:17:58;93149.00;;;8.58;77.57
35888;BME280;21990;42.540;23.496;2023-03-04T14:22:56;93146.13;;;8.82;77.23
35888;BME280;21990;42.540;23.496;2023-03-04T14:25:25;93146.03;;;8.88;76.94
35888;BME280;21990;42.540;23.496;2023-03-04T14:28:23;93139.28;;;8.78;75.20
35888;BME280;21990;42.540;23.496;2023-03-04T14:30:54;93139.19;;;8.83;76.53
35888;BME280;21990;42.540;23.496;2023-03-04T14:33:26;93131.66;;;8.91;76.33
35888;BME280;21990;42.540;23.496;2023-03-04T14:35:54;93140.78;;;8.97;75.36
35888;BME280;21990;42.540;23.496;2023-03-04T14:38:33;93139.88;;;8.89;74.38
35888;BME280;21990;42.540;23.496;2023-03-04T14:41:07;93129.72;;;8.86;75.32
35888;BME280;21990;42.540;23.496;2023-03-04T14:43:42;93132.13;;;8.95;75.65
35888;BME280;21990;42.540;23.496;2023-03-04T14:46:13;93124.69;;;8.98;75.11
35888;BME280;21990;42.540;23.496;2023-03-04T14:48:46;93118.53;;;8.99;75.15
35888;BME280;21990;42.540;23.496;2023-03-04T14:53:57;93127.19;;;9.01;75.19
35888;BME280;21990;42.540;23.496;2023-03-04T14:56:30;93122.69;;;9.12;75.37
35888;BME280;21990;42.540;23.496;2023-03-04T14:58:58;93118.19;;;9.22;75.76
35888;BME280;21990;42.540;23.496;2023-03-04T15:01:34;93124.88;;;9.19;75.80
35888;BME280;21990;42.540;23.496;2023-03-04T15:04:10;93116.88;;;9.23;75.27
35888;BME280;21990;42.540;23.496;2023-03-04T15:06:51;93118.41;;;9.24;75.27
35888;BME280;21990;42.540;23.496;2023-03-04T15:09:23;93119.38;;;9.26;75.17
35888;BME280;21990;42.540;23.496;2023-03-04T15:12:05;93110.75;;;9.24;75.09
35888;BME280;21990;42.540;23.496;2023-03-04T15:14:47;93119.69;;;9.23;75.35
35888;BME280;21990;42.540;23.496;2023-03-04T15:20:20;93114.63;;;9.21;75.67